Wichita, KS

10:37 PM CDT on March 31, 2015 (GMT -0500)
Shadow Lakes | | Change Station
CLOSE
Current Station
Personal Weather Station
Location: Wichita, KS
Elevation: 1358 ft
Nearby Weather Stations

Elev 1358 ft 37.74 °N, 97.44 °W | Updated 14 seconds ago

Clear
Clear
68.5 °F
Feels Like 68.5 °F
N
8.0
Wind Variable Wind from SE
Gusts 9.0 mph

Today
High -- | Low -- °F
--% Chance of Precip.
Yesterday
High -- | Low -- °F
Precip. -- in
7:16 AM 7:51 PM
Waxing Gibbous, 90% visible
Pressure 29.86 in
Visibility 9.0 miles
Clouds Few 25000 ft
Dew Point 44 °F
Humidity 41%
Rainfall 0.00 in
Snow Depth Not available.
UV 0 out of 12
Pollen 9.30 out of 12
Air Quality Not available.
Flu Activity Not available.
METAR KICT 010253Z 12009KT 9SM FEW250 21/04 A2988 RMK AO2 SLP111 T02060044 51003

More Conditions Fewer Conditions

Pressure 29.86 in
Visibility 9.0 miles
Clouds Few 25000 ft
Dew Point 44 °F
Humidity 41%
Rainfall 0.00 in
Snow Depth Not available.
UV 0 out of 12
Pollen 9.30 out of 12
Air Quality Not available.
Flu Activity Not available.
METAR KICT 010253Z 12009KT 9SM FEW250 21/04 A2988 RMK AO2 SLP111 T02060044 51003

More Conditions Fewer Conditions

10-Day Weather Forecast

Almanac

Astronomy

Mar. 31, 2015 Rise Set
Actual Time
Civil Twilight
Nautical Twilight
Astronomical Twilight
Moon
Length of Visible Light
Length of Day
Tomorrow will be .
, % of the Moon is Illuminated

Today's Extremes

State Highs State Lows

Community

WunderPhotos

Upload Photos

1,809,898 photos uploaded!

WunderBlogs® & News

Nearby

Air Quality

  Air Quality AQ Index Pollutant
Not available.

Snow Depth

Station Depth Elevation

Earthquake Activity

City Distance Mag. Time & Date
Minimum magnitude displayed is 2.5.

Coastal Water Temperatures

Place Temperature

Stations

Nearby Weather Stations

Station Location Temp. Windchill Dew Point Humidity Wind Precip. Elev Updated Type